createdAt,value
2022-10-03T00:01:23.980Z,86.30
2022-10-03T00:04:43.410Z,86.20
2022-10-03T00:08:01.858Z,86.70
2022-10-03T00:11:23.614Z,86.50
2022-10-03T00:14:32.747Z,86.30
2022-10-03T00:18:02.720Z,86.30
2022-10-03T00:21:15.736Z,84.90
2022-10-03T00:24:30.040Z,85.00
2022-10-03T00:27:50.129Z,84.30
2022-10-03T00:31:19.614Z,83.90
2022-10-03T00:34:39.606Z,85.20
2022-10-03T00:37:44.901Z,85.80
2022-10-03T00:41:13.404Z,86.40
2022-10-03T00:44:44.231Z,85.40
2022-10-03T00:48:06.839Z,85.90
2022-10-03T00:51:30.482Z,86.00
2022-10-03T00:54:53.270Z,85.80
2022-10-03T00:58:14.951Z,86.00
2022-10-03T01:01:39.226Z,85.40
2022-10-03T01:05:00.987Z,85.00
2022-10-03T01:08:21.373Z,85.40
2022-10-03T01:11:39.385Z,85.40
2022-10-03T01:15:02.660Z,84.00
2022-10-03T01:18:17.222Z,83.10
2022-10-03T01:21:36.239Z,83.00
2022-10-03T01:24:55.017Z,84.00
2022-10-03T01:28:21.776Z,84.80
2022-10-03T01:31:40.916Z,83.40
2022-10-03T01:35:02.777Z,83.90
2022-10-03T01:38:30.853Z,82.30
2022-10-03T01:41:49.137Z,83.30
2022-10-03T01:45:11.774Z,82.30
2022-10-03T01:48:45.073Z,81.30
2022-10-03T01:51:55.686Z,80.00
2022-10-03T01:55:11.102Z,80.80
2022-10-03T01:58:19.860Z,80.60
2022-10-03T02:01:46.952Z,80.00
2022-10-03T02:04:58.278Z,81.90
2022-10-03T02:08:07.093Z,81.90
2022-10-03T02:11:08.932Z,83.00
2022-10-03T02:14:23.893Z,83.60
2022-10-03T02:17:44.605Z,84.00
2022-10-03T02:20:54.690Z,83.90
2022-10-03T02:24:28.725Z,83.00
2022-10-03T02:27:56.688Z,82.80
2022-10-03T02:31:23.259Z,80.00
2022-10-03T02:34:41.948Z,77.80
2022-10-03T02:38:06.137Z,78.20
2022-10-03T02:41:33.101Z,76.80
2022-10-03T02:45:07.239Z,75.50
2022-10-03T02:48:32.932Z,74.70
2022-10-03T02:52:11.292Z,74.80
2022-10-03T02:55:44.939Z,74.80
2022-10-03T02:59:11.410Z,75.40
2022-10-03T03:02:40.282Z,75.50
2022-10-03T03:06:00.330Z,71.20
2022-10-03T03:09:33.666Z,71.30
2022-10-03T03:13:01.166Z,70.50
2022-10-03T03:16:26.261Z,69.00
2022-10-03T03:19:56.203Z,68.40
2022-10-03T03:23:11.384Z,66.30
2022-10-03T03:26:29.214Z,66.80
2022-10-03T03:29:57.171Z,66.40
2022-10-03T03:33:22.515Z,66.30
2022-10-03T03:36:39.455Z,65.50
2022-10-03T03:40:04.747Z,65.90
2022-10-03T03:43:29.108Z,65.60
2022-10-03T03:46:46.402Z,65.40
2022-10-03T03:50:15.234Z,65.50
2022-10-03T03:53:33.985Z,64.70
2022-10-03T03:56:47.770Z,63.70
2022-10-03T04:00:11.471Z,63.90
2022-10-03T04:03:28.987Z,63.60
2022-10-03T04:06:49.832Z,62.90
2022-10-03T04:10:07.608Z,63.30
2022-10-03T04:13:24.299Z,62.60
2022-10-03T04:16:53.917Z,62.60
2022-10-03T04:20:18.600Z,62.00
2022-10-03T04:23:35.242Z,61.60
2022-10-03T04:26:52.511Z,61.40
2022-10-03T04:30:03.397Z,61.30
2022-10-03T04:33:33.947Z,60.80
2022-10-03T04:37:04.095Z,59.90
2022-10-03T04:40:23.590Z,60.30
2022-10-03T04:43:45.940Z,59.80
2022-10-03T04:47:05.671Z,59.70
2022-10-03T04:50:24.571Z,59.60
2022-10-03T04:53:46.202Z,59.10
2022-10-03T04:57:00.946Z,59.30
2022-10-03T05:00:16.691Z,59.40
2022-10-03T05:03:42.100Z,59.30
2022-10-03T05:07:09.438Z,58.70
2022-10-03T05:10:29.042Z,59.20
2022-10-03T05:13:50.507Z,60.20
2022-10-03T05:17:05.534Z,59.20
2022-10-03T05:20:21.836Z,58.90
2022-10-03T05:23:31.719Z,58.40
2022-10-03T05:26:56.142Z,58.20
2022-10-03T05:30:16.192Z,58.40
2022-10-03T05:33:38.748Z,58.60
2022-10-03T05:37:04.665Z,57.60
2022-10-03T05:40:24.599Z,58.20
2022-10-03T05:43:45.271Z,58.10
2022-10-03T05:47:06.344Z,57.30
2022-10-03T05:50:29.290Z,57.30
2022-10-03T05:53:55.608Z,57.20
2022-10-03T05:57:18.165Z,57.20
2022-10-03T06:00:40.629Z,57.80
2022-10-03T06:04:11.346Z,57.40
2022-10-03T06:07:40.822Z,57.00
2022-10-03T06:11:01.677Z,57.30
2022-10-03T06:14:32.026Z,57.40
2022-10-03T06:17:57.039Z,57.20
2022-10-03T06:21:21.638Z,57.20
2022-10-03T06:24:49.837Z,56.70
2022-10-03T06:28:19.532Z,56.50
2022-10-03T06:31:52.181Z,55.80
2022-10-03T06:35:29.529Z,55.90
2022-10-03T06:39:05.669Z,56.40
2022-10-03T06:42:30.417Z,56.50
2022-10-03T06:46:07.964Z,56.20
2022-10-03T06:49:37.694Z,55.90
2022-10-03T06:52:54.010Z,55.70
2022-10-03T06:56:23.922Z,55.70
2022-10-03T06:59:52.922Z,54.80
2022-10-03T07:03:19.759Z,54.90
2022-10-03T07:06:49.185Z,54.30
2022-10-03T07:10:18.909Z,54.60
2022-10-03T07:13:51.229Z,55.10
2022-10-03T07:17:09.285Z,55.60
2022-10-03T07:20:42.147Z,54.60
2022-10-03T07:24:10.984Z,54.40
2022-10-03T07:27:39.966Z,54.20
2022-10-03T07:31:02.245Z,54.00
2022-10-03T07:37:59.819Z,53.30
2022-10-03T07:41:33.024Z,53.20
2022-10-03T07:45:03.452Z,53.60
2022-10-03T07:48:25.612Z,53.50
2022-10-03T07:51:44.065Z,53.60
2022-10-03T07:55:11.926Z,53.10
2022-10-03T07:58:46.041Z,53.00
2022-10-03T08:02:09.577Z,53.30
2022-10-03T08:05:39.395Z,52.00
2022-10-03T08:09:08.256Z,52.50
2022-10-03T08:12:41.112Z,52.60
2022-10-03T08:16:11.076Z,52.10
2022-10-03T08:19:32.833Z,51.50
2022-10-03T08:22:46.461Z,51.10
2022-10-03T08:26:16.005Z,50.70
2022-10-03T08:29:35.666Z,50.30
2022-10-03T08:32:57.478Z,50.30
2022-10-03T08:36:17.846Z,50.20
2022-10-03T08:39:47.520Z,50.70
2022-10-03T08:43:15.571Z,50.00
2022-10-03T08:46:45.327Z,50.40
2022-10-03T08:50:18.807Z,49.90
2022-10-03T08:53:48.836Z,49.90
2022-10-03T08:57:07.989Z,50.00
2022-10-03T09:00:17.060Z,50.10
2022-10-03T09:03:50.636Z,50.10
2022-10-03T09:07:18.884Z,49.50
2022-10-03T09:10:37.769Z,49.90
2022-10-03T09:14:11.459Z,50.60
2022-10-03T09:17:39.128Z,50.20
2022-10-03T09:21:09.358Z,49.80
2022-10-03T09:24:31.334Z,50.50
2022-10-03T09:27:55.828Z,50.40
2022-10-03T09:31:29.392Z,51.10
2022-10-03T09:34:56.252Z,49.30
2022-10-03T09:38:34.291Z,49.80
2022-10-03T09:41:53.825Z,50.00
2022-10-03T09:45:15.165Z,49.90
2022-10-03T09:48:33.583Z,49.60
2022-10-03T09:51:58.345Z,49.40
2022-10-03T09:55:27.946Z,49.40
2022-10-03T09:58:57.166Z,49.70
2022-10-03T10:02:23.683Z,50.60
2022-10-03T10:05:48.286Z,49.70
2022-10-03T10:09:23.733Z,50.40
2022-10-03T10:12:51.495Z,50.70
2022-10-03T10:16:15.772Z,51.10
2022-10-03T10:19:41.636Z,51.40
2022-10-03T10:23:10.911Z,51.70
2022-10-03T10:26:35.622Z,52.00
2022-10-03T10:29:51.127Z,51.80
2022-10-03T10:33:20.032Z,52.00
2022-10-03T10:36:54.265Z,51.40
2022-10-03T10:40:20.396Z,52.00
2022-10-03T10:43:50.486Z,52.20
2022-10-03T10:47:24.048Z,52.40
2022-10-03T10:50:53.010Z,52.60
2022-10-03T10:54:23.317Z,52.40
2022-10-03T10:57:57.893Z,52.20
2022-10-03T11:01:26.794Z,52.80
2022-10-03T11:04:56.432Z,52.50
2022-10-03T11:08:29.715Z,53.10
2022-10-03T11:12:00.138Z,53.00
2022-10-03T11:15:36.855Z,53.30
2022-10-03T11:18:52.275Z,52.80
2022-10-03T11:22:16.413Z,53.00
2022-10-03T11:25:54.930Z,52.60
2022-10-03T11:29:27.851Z,52.80
2022-10-03T11:33:06.375Z,53.10
2022-10-03T11:36:28.338Z,53.10
2022-10-03T11:39:55.836Z,54.00
2022-10-03T11:43:21.099Z,53.80
2022-10-03T11:46:41.499Z,54.20
2022-10-03T11:50:15.142Z,55.60
2022-10-03T11:53:34.348Z,54.70
2022-10-03T11:56:55.121Z,54.90
2022-10-03T12:00:06.186Z,54.90
2022-10-03T12:03:27.431Z,55.00
2022-10-03T12:07:15.880Z,55.30
2022-10-03T12:10:36.082Z,55.30
2022-10-03T12:14:08.643Z,55.10
2022-10-03T12:17:18.488Z,56.30
2022-10-03T12:20:32.409Z,57.30
2022-10-03T12:23:54.647Z,57.60
2022-10-03T12:27:16.185Z,58.40
2022-10-03T12:30:18.692Z,58.60
2022-10-03T12:33:40.053Z,58.80
2022-10-03T12:37:04.337Z,59.60
2022-10-03T12:40:14.066Z,58.50
2022-10-03T12:43:34.768Z,57.70
2022-10-03T12:47:02.328Z,57.70
2022-10-03T12:50:32.074Z,57.80
2022-10-03T12:54:01.248Z,57.90
2022-10-03T12:57:31.188Z,57.50
2022-10-03T13:00:47.989Z,57.70
2022-10-03T13:04:13.772Z,57.90
2022-10-03T13:07:34.348Z,58.00
2022-10-03T13:10:42.942Z,58.40
2022-10-03T13:14:00.557Z,58.80
2022-10-03T13:17:15.865Z,59.50
2022-10-03T13:20:29.644Z,59.40
2022-10-03T13:23:50.586Z,59.40
2022-10-03T13:27:10.048Z,59.70
2022-10-03T13:30:35.268Z,59.60
2022-10-03T13:33:45.331Z,59.50
2022-10-03T13:36:54.022Z,59.40
2022-10-03T13:39:55.860Z,59.30
2022-10-03T13:42:54.957Z,59.40
2022-10-03T13:45:57.484Z,59.40
2022-10-03T13:49:02.460Z,59.50
2022-10-03T13:52:16.180Z,59.20
2022-10-03T13:55:32.193Z,59.20
2022-10-03T13:58:54.503Z,59.50
2022-10-03T14:02:13.987Z,59.60
2022-10-03T14:05:43.867Z,59.40
2022-10-03T14:09:12.599Z,59.20
2022-10-03T14:12:54.942Z,59.30
2022-10-03T14:16:11.297Z,59.40
2022-10-03T14:19:31.585Z,59.40
2022-10-03T14:22:50.287Z,60.00
2022-10-03T14:26:01.353Z,60.50
2022-10-03T14:29:16.803Z,60.90
2022-10-03T14:32:46.690Z,61.30
2022-10-03T14:36:15.563Z,61.40
2022-10-03T14:39:34.003Z,62.00
2022-10-03T14:42:44.745Z,62.20
2022-10-03T14:45:50.291Z,62.30
2022-10-03T14:48:52.832Z,62.50
2022-10-03T14:52:01.114Z,62.90
2022-10-03T14:55:03.602Z,63.30
2022-10-03T14:58:11.419Z,63.40
2022-10-03T15:01:23.208Z,63.70
2022-10-03T15:04:40.472Z,64.00
2022-10-03T15:07:42.075Z,63.80
2022-10-03T15:10:41.641Z,64.10
2022-10-03T15:13:53.661Z,64.30
2022-10-03T15:16:56.183Z,63.90
2022-10-03T15:19:57.603Z,63.80
2022-10-03T15:23:01.682Z,64.20
2022-10-03T15:26:00.613Z,64.20
2022-10-03T15:29:01.677Z,64.30
2022-10-03T15:32:00.487Z,64.90
2022-10-03T15:35:02.678Z,65.20
2022-10-03T15:38:12.038Z,65.80
2022-10-03T15:41:17.000Z,66.10
2022-10-03T15:44:22.509Z,66.30
2022-10-03T15:47:25.098Z,65.50
2022-10-03T15:50:29.890Z,64.90
2022-10-03T15:53:37.149Z,65.00
2022-10-03T15:56:43.254Z,65.80
2022-10-03T15:59:47.625Z,65.90
2022-10-03T16:02:53.227Z,66.30
2022-10-03T16:06:16.858Z,66.60
2022-10-03T16:09:50.308Z,66.80
2022-10-03T16:13:09.025Z,67.00
2022-10-03T16:16:20.027Z,67.40
2022-10-03T16:19:37.469Z,67.60
2022-10-03T16:22:45.258Z,67.30
2022-10-03T16:25:51.990Z,66.30
2022-10-03T16:29:02.151Z,66.10
2022-10-03T16:32:14.960Z,66.40
2022-10-03T16:35:32.551Z,67.10
2022-10-03T16:38:43.106Z,67.10
2022-10-03T16:41:44.523Z,66.60
2022-10-03T16:44:55.876Z,66.90
2022-10-03T16:48:12.212Z,66.80
2022-10-03T16:51:21.153Z,67.10
2022-10-03T16:54:20.808Z,67.70
2022-10-03T16:57:28.057Z,67.60
2022-10-03T17:00:35.673Z,67.90
2022-10-03T17:03:47.632Z,68.00
2022-10-03T17:06:49.291Z,68.30
2022-10-03T17:09:51.046Z,69.10
2022-10-03T17:12:53.614Z,70.30
2022-10-03T17:16:01.101Z,68.70
2022-10-03T17:19:18.804Z,68.90
2022-10-03T17:22:24.381Z,69.30
2022-10-03T17:25:53.198Z,69.80
2022-10-03T17:28:59.628Z,70.10
2022-10-03T17:32:28.908Z,70.40
2022-10-03T17:35:44.346Z,69.80
2022-10-03T17:39:03.130Z,68.80
2022-10-03T17:42:19.316Z,69.30
2022-10-03T17:45:40.491Z,69.10
2022-10-03T17:48:46.871Z,69.30
2022-10-03T17:51:48.625Z,68.20
2022-10-03T17:54:54.418Z,67.80
2022-10-03T17:58:00.766Z,67.40
2022-10-03T18:01:11.594Z,66.50
2022-10-03T18:04:19.250Z,65.80
2022-10-03T18:07:23.193Z,65.00
2022-10-03T18:10:26.397Z,64.10
2022-10-03T18:13:35.643Z,63.80
2022-10-03T18:16:37.665Z,63.50
2022-10-03T18:19:54.951Z,62.90
2022-10-03T18:23:01.790Z,61.60
2022-10-03T18:26:19.504Z,61.60
2022-10-03T18:29:32.980Z,61.90
2022-10-03T18:32:36.295Z,62.00
2022-10-03T18:35:36.660Z,62.20
2022-10-03T18:38:37.156Z,62.50
2022-10-03T18:41:35.787Z,62.20
2022-10-03T18:44:36.838Z,61.20
2022-10-03T18:47:42.091Z,60.90
2022-10-03T18:50:54.095Z,60.00
2022-10-03T18:53:59.765Z,59.30
2022-10-03T18:57:09.574Z,59.70
2022-10-03T19:00:21.534Z,60.40
2022-10-03T19:03:28.206Z,60.40
2022-10-03T19:06:32.774Z,60.40
2022-10-03T19:09:39.944Z,60.80
2022-10-03T19:12:42.859Z,61.70
2022-10-03T19:16:06.625Z,62.10
2022-10-03T19:19:24.736Z,62.60
2022-10-03T19:22:33.849Z,62.80
2022-10-03T19:25:34.060Z,63.10
2022-10-03T19:28:39.888Z,63.20
2022-10-03T19:31:44.615Z,63.80
2022-10-03T19:34:47.272Z,64.70
2022-10-03T19:37:50.286Z,64.80
2022-10-03T19:41:12.834Z,64.60
2022-10-03T19:44:17.939Z,65.70
2022-10-03T19:47:25.605Z,65.90
2022-10-03T19:50:36.527Z,66.00
2022-10-03T19:53:35.445Z,67.00
2022-10-03T19:56:36.294Z,69.70
2022-10-03T19:59:47.655Z,71.80
2022-10-03T20:02:52.149Z,73.60
2022-10-03T20:06:02.081Z,78.90
2022-10-03T20:09:21.194Z,84.60
2022-10-03T20:12:20.192Z,89.50
2022-10-03T20:15:23.860Z,90.90
2022-10-03T20:18:30.882Z,91.80
2022-10-03T20:21:30.703Z,92.70
2022-10-03T20:24:41.711Z,94.00
2022-10-03T20:27:45.558Z,94.90
2022-10-03T20:30:49.151Z,96.00
2022-10-03T20:33:47.867Z,96.20
2022-10-03T20:36:54.019Z,96.80
2022-10-03T20:39:56.854Z,97.60
2022-10-03T20:43:12.194Z,97.60
2022-10-03T20:46:30.822Z,97.80
2022-10-03T20:49:38.140Z,98.10
2022-10-03T20:52:36.406Z,98.80
2022-10-03T20:55:47.562Z,99.70
2022-10-03T20:58:52.547Z,99.90
2022-10-03T21:02:01.813Z,99.90
2022-10-03T21:05:05.839Z,99.90
2022-10-03T21:08:16.113Z,99.90
2022-10-03T21:11:27.631Z,99.90
2022-10-03T21:14:30.802Z,99.90
2022-10-03T21:17:30.448Z,99.90
2022-10-03T21:20:38.473Z,99.90
2022-10-03T21:23:59.371Z,99.90
2022-10-03T21:27:02.586Z,99.90
2022-10-03T21:30:18.133Z,99.90
2022-10-03T21:33:25.075Z,99.90
2022-10-03T21:36:48.782Z,99.90
2022-10-03T21:40:18.443Z,99.90
2022-10-03T21:43:43.105Z,99.90
2022-10-03T21:46:55.544Z,99.90
2022-10-03T21:50:01.750Z,98.50
2022-10-03T21:53:19.543Z,99.10
2022-10-03T21:56:41.104Z,99.00
2022-10-03T22:00:03.127Z,99.20
2022-10-03T22:03:15.872Z,99.60
2022-10-03T22:06:26.168Z,99.90
2022-10-03T22:09:24.469Z,99.90
2022-10-03T22:12:27.306Z,99.90
2022-10-03T22:15:51.092Z,99.90
2022-10-03T22:19:10.397Z,99.90
2022-10-03T22:22:31.388Z,99.90
2022-10-03T22:25:46.148Z,99.90
2022-10-03T22:29:16.687Z,99.90
2022-10-03T22:32:27.903Z,99.90
2022-10-03T22:35:48.366Z,99.90
2022-10-03T22:38:50.535Z,99.90
2022-10-03T22:41:53.865Z,99.90
2022-10-03T22:44:55.515Z,99.90
2022-10-03T22:47:58.895Z,99.90
2022-10-03T22:50:58.696Z,99.90
2022-10-03T22:54:03.513Z,99.90
2022-10-03T22:57:09.540Z,99.90
2022-10-03T23:00:12.822Z,99.90
2022-10-03T23:03:19.994Z,99.90
2022-10-03T23:06:43.820Z,99.90
2022-10-03T23:09:56.473Z,99.90
2022-10-03T23:13:05.034Z,99.90
2022-10-03T23:16:19.460Z,99.90
2022-10-03T23:19:41.451Z,99.90
2022-10-03T23:22:44.608Z,99.90
2022-10-03T23:26:06.282Z,99.90
2022-10-03T23:29:11.671Z,99.90
2022-10-03T23:32:11.408Z,99.90
2022-10-03T23:35:17.810Z,99.90
2022-10-03T23:38:51.078Z,99.90
2022-10-03T23:41:59.331Z,99.90
2022-10-03T23:44:58.986Z,99.90
2022-10-03T23:48:04.485Z,99.90
2022-10-03T23:51:07.544Z,99.90
2022-10-03T23:54:11.880Z,99.90
2022-10-03T23:57:10.375Z,99.90
